Huvudsida
METAR-TAF:

METAR-TAF

Flygplatser :

Honningsvågs flygplats. Valan

Honningsvåg, Norge

latitud: 71-01N, longitud: 025-59E, höjd: 1 m

Aktuellt väderrapport

Denna rapport gjordes för 2 timmar och 37 minuter sedan, klockan 19:20 UTC
Vind 16 kt från nord/nordost
Temperatur 2°C
Fuktighet 87%
Tryck 986 hPa
Sikt: 6000 m
Spridda moln på en höjd av 700 ft
Brutna moln på en höjd av 1100 ft
lätt regn

METAR: ENHV 081920Z 02016KT 6000 -RA SCT007 BKN011 02/00 Q0986

Tid: 23:57 (21:57 UTC)


TAF: saknas

Aktuella väderrapporter och prognoser från 4000 flygplatser (METAR- och TAF-rapporter).

De tillgängliga stationerna syns som gula och röda prickar på kartan.

För musen över prickarna för att se namnen på stationerna.

Klicka sedan för att få väderrapporter och prognoser.

För att ändra kartan: Klicka på de gröna knapparna med ett svart kors på för att zooma in; den gröna knappen med ett streck på för att zooma ut; eller på de gröna pilarna för angränsande kartor.


METAR-TAF: